createdAt,value
2024-02-19T00:00:19.194Z,8.21
2024-02-19T00:01:19.242Z,8.29
2024-02-19T00:02:19.163Z,8.21
2024-02-19T00:03:19.216Z,8.21
2024-02-19T00:04:19.278Z,8.14
2024-02-19T00:05:19.179Z,8.15
2024-02-19T00:06:19.125Z,8.25
2024-02-19T00:07:19.610Z,8.21
2024-02-19T00:08:19.230Z,8.25
2024-02-19T00:09:19.075Z,8.22
2024-02-19T00:10:19.185Z,8.26
2024-02-19T00:11:19.158Z,8.25
2024-02-19T00:12:19.100Z,8.26
2024-02-19T00:13:19.098Z,8.20
2024-02-19T00:14:19.072Z,8.18
2024-02-19T00:15:19.031Z,8.14
2024-02-19T00:16:19.067Z,8.17
2024-02-19T00:17:19.009Z,8.22
2024-02-19T00:18:19.072Z,8.17
2024-02-19T00:19:19.036Z,8.04
2024-02-19T00:20:18.995Z,8.07
2024-02-19T00:21:18.964Z,8.00
2024-02-19T00:22:19.006Z,8.04
2024-02-19T00:23:18.993Z,8.02
2024-02-19T00:24:20.369Z,7.99
2024-02-19T00:25:18.985Z,8.03
2024-02-19T00:26:18.903Z,8.04
2024-02-19T00:27:18.934Z,7.94
2024-02-19T00:28:18.941Z,7.93
2024-02-19T00:29:18.876Z,8.08
2024-02-19T00:30:18.870Z,8.02
2024-02-19T00:31:18.896Z,7.96
2024-02-19T00:32:18.941Z,8.00
2024-02-19T00:33:18.887Z,8.00
2024-02-19T00:34:18.967Z,7.90
2024-02-19T00:35:18.813Z,7.85
2024-02-19T00:36:18.796Z,7.87
2024-02-19T00:37:18.901Z,7.89
2024-02-19T00:38:18.797Z,7.97
2024-02-19T00:39:18.822Z,7.90
2024-02-19T00:40:18.794Z,7.85
2024-02-19T00:41:18.733Z,7.77
2024-02-19T00:42:18.730Z,7.92
2024-02-19T00:43:18.745Z,7.87
2024-02-19T00:44:18.720Z,7.90
2024-02-19T00:45:18.692Z,7.90
2024-02-19T00:46:18.763Z,7.85
2024-02-19T00:47:18.669Z,7.72
2024-02-19T00:48:18.666Z,7.82
2024-02-19T00:49:18.786Z,7.81
2024-02-19T00:50:18.690Z,7.81
2024-02-19T00:51:18.644Z,7.81
2024-02-19T00:52:18.800Z,7.78
2024-02-19T00:53:18.610Z,7.69
2024-02-19T00:54:18.618Z,7.66
2024-02-19T00:55:18.690Z,7.77
2024-02-19T00:56:18.602Z,7.66
2024-02-19T00:57:18.644Z,7.72
2024-02-19T00:58:18.644Z,7.69
2024-02-19T00:59:18.550Z,7.62
2024-02-19T01:00:18.556Z,7.55
2024-02-19T01:01:18.599Z,7.53
2024-02-19T01:02:18.539Z,7.63
2024-02-19T01:03:18.591Z,7.69
2024-02-19T01:04:18.574Z,7.63
2024-02-19T01:05:18.500Z,7.74
2024-02-19T01:06:18.544Z,7.62
2024-02-19T01:07:18.550Z,7.72
2024-02-19T01:08:18.496Z,7.60
2024-02-19T01:09:18.477Z,7.63
2024-02-19T01:10:18.523Z,7.66
2024-02-19T01:11:18.477Z,7.56
2024-02-19T01:12:18.441Z,7.52
2024-02-19T01:13:18.430Z,7.47
2024-02-19T01:14:18.419Z,7.38
2024-02-19T01:15:18.389Z,7.37
2024-02-19T01:16:18.484Z,7.50
2024-02-19T01:17:18.390Z,7.50
2024-02-19T01:18:18.419Z,7.47
2024-02-19T01:19:18.417Z,7.44
2024-02-19T01:20:18.407Z,7.50
2024-02-19T01:21:18.349Z,7.53
2024-02-19T01:22:18.515Z,7.42
2024-02-19T01:23:18.387Z,7.41
2024-02-19T01:24:18.321Z,7.56
2024-02-19T01:25:18.386Z,7.50
2024-02-19T01:26:18.346Z,7.31
2024-02-19T01:27:18.289Z,7.42
2024-02-19T01:28:18.313Z,7.44
2024-02-19T01:29:18.264Z,7.52
2024-02-19T01:30:18.250Z,7.53
2024-02-19T01:31:18.370Z,7.44
2024-02-19T01:32:18.256Z,7.41
2024-02-19T01:33:18.216Z,7.29
2024-02-19T01:34:18.293Z,7.42
2024-02-19T01:35:18.265Z,7.50
2024-02-19T01:36:18.191Z,7.35
2024-02-19T01:37:18.303Z,7.55
2024-02-19T01:38:18.188Z,7.52
2024-02-19T01:39:18.137Z,7.44
2024-02-19T01:40:18.157Z,7.35
2024-02-19T01:41:18.140Z,7.49
2024-02-19T01:42:18.136Z,7.50
2024-02-19T01:43:18.160Z,7.53
2024-02-19T01:44:18.062Z,7.50
2024-02-19T01:45:18.137Z,7.52
2024-02-19T01:46:18.196Z,7.59
2024-02-19T01:47:18.703Z,7.49
2024-02-19T01:48:18.714Z,7.44
2024-02-19T01:49:18.083Z,7.26
2024-02-19T01:50:18.063Z,7.34
2024-02-19T01:51:18.010Z,7.52
2024-02-19T01:52:18.093Z,7.60
2024-02-19T01:53:18.038Z,7.44
2024-02-19T01:54:18.035Z,7.37
2024-02-19T01:55:18.052Z,7.47
2024-02-19T01:56:17.987Z,7.44
2024-02-19T01:57:17.983Z,7.44
2024-02-19T01:58:18.007Z,7.47
2024-02-19T01:59:17.937Z,7.34
2024-02-19T02:00:18.109Z,7.42
2024-02-19T02:01:17.982Z,7.55
2024-02-19T02:02:17.949Z,7.52
2024-02-19T02:03:17.965Z,7.47
2024-02-19T02:04:17.970Z,7.50
2024-02-19T02:05:17.902Z,7.69
2024-02-19T02:06:17.989Z,7.67
2024-02-19T02:07:17.981Z,7.50
2024-02-19T02:08:17.854Z,7.49
2024-02-19T02:09:17.818Z,7.55
2024-02-19T02:10:17.971Z,7.53
2024-02-19T02:11:17.833Z,7.45
2024-02-19T02:12:17.820Z,7.47
2024-02-19T02:13:17.846Z,7.50
2024-02-19T02:14:17.794Z,7.49
2024-02-19T02:15:17.762Z,7.41
2024-02-19T02:16:17.767Z,7.52
2024-02-19T02:17:17.748Z,7.52
2024-02-19T02:18:17.859Z,7.53
2024-02-19T02:19:17.855Z,7.60
2024-02-19T02:20:17.768Z,7.50
2024-02-19T02:21:17.715Z,7.71
2024-02-19T02:22:17.766Z,7.75
2024-02-19T02:23:17.700Z,7.67
2024-02-19T02:24:17.682Z,7.69
2024-02-19T02:25:17.739Z,7.71
2024-02-19T02:26:17.671Z,7.77
2024-02-19T02:27:17.644Z,7.60
2024-02-19T02:28:17.710Z,7.58
2024-02-19T02:29:17.606Z,7.59
2024-02-19T02:30:17.610Z,7.53
2024-02-19T02:31:17.704Z,7.42
2024-02-19T02:32:17.585Z,7.35
2024-02-19T02:33:17.671Z,7.47
2024-02-19T02:34:17.723Z,7.56
2024-02-19T02:35:17.560Z,7.62
2024-02-19T02:36:17.568Z,7.59
2024-02-19T02:37:17.574Z,7.42
2024-02-19T02:38:17.531Z,7.50
2024-02-19T02:39:17.474Z,7.53
2024-02-19T02:40:17.593Z,7.59
2024-02-19T02:41:17.507Z,7.74
2024-02-19T02:42:17.472Z,7.74
2024-02-19T02:43:17.499Z,7.63
2024-02-19T02:44:17.451Z,7.58
2024-02-19T02:45:17.455Z,7.63
2024-02-19T02:46:17.466Z,7.60
2024-02-19T02:47:17.412Z,7.66
2024-02-19T02:48:17.465Z,7.74
2024-02-19T02:49:17.568Z,7.79
2024-02-19T02:50:17.426Z,7.75
2024-02-19T02:51:17.387Z,7.79
2024-02-19T02:52:17.446Z,7.82
2024-02-19T02:53:17.358Z,7.78
2024-02-19T02:54:17.343Z,7.79
2024-02-19T02:55:17.438Z,7.89
2024-02-19T02:56:17.329Z,7.85
2024-02-19T02:57:17.348Z,7.66
2024-02-19T02:58:17.351Z,7.63
2024-02-19T02:59:17.328Z,7.55
2024-02-19T03:00:17.311Z,7.71
2024-02-19T03:01:17.367Z,7.74
2024-02-19T03:02:17.283Z,7.74
2024-02-19T03:03:17.319Z,7.77
2024-02-19T03:04:17.635Z,7.81
2024-02-19T03:05:17.276Z,7.78
2024-02-19T03:06:17.346Z,7.77
2024-02-19T03:07:17.309Z,7.77
2024-02-19T03:08:17.197Z,7.66
2024-02-19T03:09:17.492Z,7.62
2024-02-19T03:10:17.205Z,7.56
2024-02-19T03:11:17.282Z,7.72
2024-02-19T03:12:17.208Z,7.74
2024-02-19T03:13:17.390Z,7.74
2024-02-19T03:14:17.141Z,7.71
2024-02-19T03:15:17.136Z,7.44
2024-02-19T03:16:17.198Z,7.42
2024-02-19T03:17:17.234Z,7.38
2024-02-19T03:18:17.244Z,7.37
2024-02-19T03:19:17.211Z,7.42
2024-02-19T03:20:17.071Z,7.41
2024-02-19T03:21:17.376Z,7.27
2024-02-19T03:22:17.122Z,7.24
2024-02-19T03:23:17.040Z,7.31
2024-02-19T03:24:17.037Z,7.34
2024-02-19T03:25:17.097Z,7.45
2024-02-19T03:26:22.184Z,7.55
2024-02-19T03:27:17.014Z,7.53
2024-02-19T03:28:17.095Z,7.58
2024-02-19T03:29:16.968Z,7.53
2024-02-19T03:30:16.972Z,7.55
2024-02-19T03:31:17.028Z,7.49
2024-02-19T03:32:16.942Z,7.53
2024-02-19T03:33:17.041Z,7.49
2024-02-19T03:34:17.328Z,7.52
2024-02-19T03:35:16.918Z,7.53
2024-02-19T03:36:16.909Z,7.50
2024-02-19T03:37:17.032Z,7.59
2024-02-19T03:38:16.911Z,7.56
2024-02-19T03:39:16.903Z,7.59
2024-02-19T03:40:17.068Z,7.69
2024-02-19T03:41:16.907Z,7.58
2024-02-19T03:42:16.844Z,7.49
2024-02-19T03:43:17.041Z,7.42
2024-02-19T03:44:17.030Z,7.53
2024-02-19T03:45:16.848Z,7.49
2024-02-19T03:46:16.926Z,7.67
2024-02-19T03:47:16.810Z,7.55
2024-02-19T03:48:16.841Z,7.67
2024-02-19T03:49:16.981Z,7.71
2024-02-19T03:50:16.780Z,7.59
2024-02-19T03:51:16.768Z,7.49
2024-02-19T03:52:16.885Z,7.56
2024-02-19T03:53:16.739Z,7.52
2024-02-19T03:54:16.807Z,7.71
2024-02-19T03:55:16.812Z,7.72
2024-02-19T03:56:16.777Z,7.74
2024-02-19T03:57:16.765Z,7.71
2024-02-19T03:58:17.183Z,7.63
2024-02-19T03:59:16.656Z,7.71
2024-02-19T04:00:16.664Z,7.66
2024-02-19T04:01:16.815Z,7.69
2024-02-19T04:02:16.644Z,7.62
2024-02-19T04:03:16.694Z,7.60
2024-02-19T04:04:16.776Z,7.69
2024-02-19T04:05:16.606Z,7.60
2024-02-19T04:06:16.617Z,7.71
2024-02-19T04:07:16.693Z,7.71
2024-02-19T04:08:16.550Z,7.71
2024-02-19T04:09:16.560Z,7.72
2024-02-19T04:10:16.585Z,7.74
2024-02-19T04:11:16.573Z,7.78
2024-02-19T04:12:16.552Z,7.87
2024-02-19T04:13:16.595Z,7.94
2024-02-19T04:14:16.496Z,7.85
2024-02-19T04:15:16.499Z,7.84
2024-02-19T04:16:16.516Z,7.82
2024-02-19T04:17:16.468Z,7.79
2024-02-19T04:18:16.626Z,7.85
2024-02-19T04:19:16.551Z,7.92
2024-02-19T04:20:16.447Z,7.93
2024-02-19T04:21:16.444Z,7.96
2024-02-19T04:22:16.507Z,7.93
2024-02-19T04:23:16.426Z,7.90
2024-02-19T04:24:16.396Z,7.93
2024-02-19T04:25:16.452Z,7.96
2024-02-19T04:26:16.381Z,7.89
2024-02-19T04:27:16.360Z,7.90
2024-02-19T04:28:16.395Z,7.92
2024-02-19T04:29:16.341Z,7.92
2024-02-19T04:30:16.323Z,7.96
2024-02-19T04:31:16.463Z,7.99
2024-02-19T04:32:16.358Z,7.97
2024-02-19T04:33:16.376Z,7.92
2024-02-19T04:34:16.369Z,7.96
2024-02-19T04:35:16.330Z,7.87
2024-02-19T04:36:16.273Z,7.87
2024-02-19T04:37:16.321Z,7.87
2024-02-19T04:38:16.250Z,7.93
2024-02-19T04:39:16.267Z,7.94
2024-02-19T04:40:16.260Z,8.02
2024-02-19T04:41:16.216Z,7.93
2024-02-19T04:42:16.193Z,7.92
2024-02-19T04:43:16.227Z,7.94
2024-02-19T04:44:16.228Z,7.96
2024-02-19T04:45:16.232Z,7.94
2024-02-19T04:46:16.249Z,7.87
2024-02-19T04:47:16.196Z,7.94
2024-02-19T04:48:16.126Z,7.96
2024-02-19T04:49:16.348Z,7.96
2024-02-19T04:50:16.383Z,7.97
2024-02-19T04:51:16.104Z,7.99
2024-02-19T04:52:16.180Z,7.97
2024-02-19T04:53:16.117Z,7.96
2024-02-19T04:54:16.082Z,8.02
2024-02-19T04:55:16.123Z,7.99
2024-02-19T04:56:16.346Z,8.04
2024-02-19T04:57:16.041Z,8.08
2024-02-19T04:58:16.145Z,8.08
2024-02-19T04:59:16.058Z,8.04
2024-02-19T05:00:16.026Z,8.00
2024-02-19T05:01:16.207Z,8.12
2024-02-19T05:02:16.019Z,8.10
2024-02-19T05:03:18.367Z,8.08
2024-02-19T05:04:16.034Z,7.97
2024-02-19T05:05:16.042Z,7.94
2024-02-19T05:06:15.990Z,7.94
2024-02-19T05:07:15.987Z,7.96
2024-02-19T05:08:15.960Z,7.99
2024-02-19T05:09:15.977Z,7.97
2024-02-19T05:10:15.993Z,8.00
2024-02-19T05:11:15.982Z,7.96
2024-02-19T05:12:15.914Z,7.97
2024-02-19T05:13:15.993Z,8.02
2024-02-19T05:14:15.859Z,7.99
2024-02-19T05:15:15.920Z,7.97
2024-02-19T05:16:15.995Z,7.90
2024-02-19T05:17:15.885Z,7.82
2024-02-19T05:18:15.914Z,7.92
2024-02-19T05:19:16.002Z,8.00
2024-02-19T05:20:16.166Z,7.99
2024-02-19T05:21:16.378Z,7.99
2024-02-19T05:22:16.056Z,7.96
2024-02-19T05:23:16.994Z,8.02
2024-02-19T05:24:15.770Z,7.96
2024-02-19T05:25:15.831Z,7.96
2024-02-19T05:26:15.759Z,8.00
2024-02-19T05:27:15.739Z,8.03
2024-02-19T05:28:15.799Z,8.00
2024-02-19T05:29:15.748Z,7.94
2024-02-19T05:30:15.733Z,7.90
2024-02-19T05:31:15.745Z,7.92
2024-02-19T05:32:19.138Z,7.93
2024-02-19T05:33:15.724Z,7.92
2024-02-19T05:34:15.679Z,7.90
2024-02-19T05:35:15.698Z,7.92
2024-02-19T05:36:15.641Z,7.87
2024-02-19T05:37:15.652Z,7.90
2024-02-19T05:38:15.618Z,7.93
2024-02-19T05:39:15.599Z,7.92
2024-02-19T05:40:15.675Z,7.92
2024-02-19T05:41:15.541Z,7.96
2024-02-19T05:42:15.573Z,7.93
2024-02-19T05:43:15.660Z,7.90
2024-02-19T05:44:15.560Z,7.97
2024-02-19T05:45:15.572Z,8.00
2024-02-19T05:46:15.580Z,7.96
2024-02-19T05:47:15.537Z,7.96
2024-02-19T05:48:15.653Z,7.99
2024-02-19T05:49:15.658Z,7.97
2024-02-19T05:50:15.563Z,7.99
2024-02-19T05:51:15.481Z,7.94
2024-02-19T05:52:15.551Z,7.94
2024-02-19T05:53:15.491Z,7.97
2024-02-19T05:54:15.474Z,7.97
2024-02-19T05:55:15.517Z,7.97
2024-02-19T05:56:15.485Z,8.00
2024-02-19T05:57:15.461Z,7.97
2024-02-19T05:58:15.467Z,7.99
2024-02-19T05:59:15.409Z,7.96
2024-02-19T06:00:15.515Z,7.92
2024-02-19T06:01:15.520Z,7.89
2024-02-19T06:02:15.441Z,7.85
2024-02-19T06:03:15.360Z,7.87
2024-02-19T06:04:15.435Z,7.81
2024-02-19T06:05:15.417Z,7.81
2024-02-19T06:06:15.385Z,7.77
2024-02-19T06:07:15.381Z,7.75
2024-02-19T06:08:15.305Z,7.84
2024-02-19T06:09:15.293Z,7.75
2024-02-19T06:10:15.363Z,7.63
2024-02-19T06:11:15.290Z,7.67
2024-02-19T06:12:15.287Z,7.77
2024-02-19T06:13:15.261Z,7.78
2024-02-19T06:14:15.232Z,7.78
2024-02-19T06:15:15.242Z,7.72
2024-02-19T06:16:15.216Z,7.72
2024-02-19T06:17:15.169Z,7.72
2024-02-19T06:18:15.213Z,7.77
2024-02-19T06:19:15.334Z,7.79
2024-02-19T06:20:15.171Z,7.77
2024-02-19T06:21:15.124Z,7.78
2024-02-19T06:22:15.670Z,7.78
2024-02-19T06:23:15.117Z,7.81
2024-02-19T06:24:15.091Z,7.90
2024-02-19T06:25:15.169Z,7.93
2024-02-19T06:26:15.062Z,7.81
2024-02-19T06:27:15.056Z,7.74
2024-02-19T06:28:15.106Z,7.74
2024-02-19T06:29:15.045Z,7.72
2024-02-19T06:30:15.049Z,7.72
2024-02-19T06:31:15.053Z,7.74
2024-02-19T06:32:15.023Z,7.75
2024-02-19T06:33:15.042Z,7.85
2024-02-19T06:34:15.220Z,7.87
2024-02-19T06:35:15.089Z,7.93
2024-02-19T06:36:14.976Z,7.94
2024-02-19T06:37:14.987Z,7.94
2024-02-19T06:38:14.946Z,7.94
2024-02-19T06:39:14.926Z,7.93
2024-02-19T06:40:14.985Z,7.93
2024-02-19T06:41:14.928Z,7.87
2024-02-19T06:42:14.920Z,7.89
2024-02-19T06:43:14.940Z,7.90
2024-02-19T06:44:14.864Z,7.96
2024-02-19T06:45:14.886Z,8.03
2024-02-19T06:46:14.896Z,8.03
2024-02-19T06:47:14.851Z,8.08
2024-02-19T06:48:14.896Z,8.03
2024-02-19T06:49:14.875Z,7.97
2024-02-19T06:50:14.900Z,7.97
2024-02-19T06:51:14.804Z,8.00
2024-02-19T06:52:14.866Z,8.00
2024-02-19T06:53:14.813Z,8.00
2024-02-19T06:54:14.777Z,7.97
2024-02-19T06:55:14.784Z,8.00
2024-02-19T06:56:14.752Z,8.02
2024-02-19T06:57:14.767Z,7.99
2024-02-19T06:58:14.786Z,7.99
2024-02-19T06:59:14.763Z,8.03
2024-02-19T07:00:14.778Z,8.07
2024-02-19T07:01:14.927Z,8.07
2024-02-19T07:02:14.767Z,8.08
2024-02-19T07:03:14.673Z,8.11
2024-02-19T07:04:14.712Z,8.18
2024-02-19T07:05:14.935Z,8.21
2024-02-19T07:06:14.730Z,8.20
2024-02-19T07:07:14.657Z,8.18
2024-02-19T07:08:14.620Z,8.17
2024-02-19T07:09:14.604Z,8.25
2024-02-19T07:10:14.659Z,8.29
2024-02-19T07:11:14.617Z,8.22
2024-02-19T07:12:14.579Z,8.18
2024-02-19T07:13:14.588Z,8.18
2024-02-19T07:14:14.549Z,8.15
2024-02-19T07:15:14.568Z,8.08
2024-02-19T07:16:14.695Z,8.08
2024-02-19T07:17:14.528Z,8.11
2024-02-19T07:18:14.761Z,8.07
2024-02-19T07:19:14.620Z,8.04
2024-02-19T07:20:14.675Z,7.99
2024-02-19T07:21:14.503Z,7.94
2024-02-19T07:22:14.568Z,7.92
2024-02-19T07:23:14.464Z,7.92
2024-02-19T07:24:14.442Z,7.89
2024-02-19T07:25:20.716Z,7.90
2024-02-19T07:26:14.460Z,7.89
2024-02-19T07:27:14.444Z,7.96
2024-02-19T07:28:14.502Z,8.00
2024-02-19T07:29:14.400Z,8.00
2024-02-19T07:30:14.443Z,7.99
2024-02-19T07:31:14.432Z,8.03
2024-02-19T07:32:14.399Z,8.02
2024-02-19T07:33:14.419Z,7.99
2024-02-19T07:34:14.473Z,7.94
2024-02-19T07:35:14.520Z,7.96
2024-02-19T07:36:14.337Z,8.00
2024-02-19T07:37:14.353Z,8.03
2024-02-19T07:38:14.319Z,8.10
2024-02-19T07:39:14.319Z,8.12
2024-02-19T07:40:14.334Z,8.12
2024-02-19T07:41:14.292Z,8.11
2024-02-19T07:42:14.263Z,8.15
2024-02-19T07:43:14.300Z,8.22
2024-02-19T07:44:14.240Z,8.21
2024-02-19T07:45:14.255Z,8.26
2024-02-19T07:46:14.285Z,8.25
2024-02-19T07:47:14.209Z,8.25
2024-02-19T07:48:14.261Z,8.26
2024-02-19T07:49:14.265Z,8.25
2024-02-19T07:50:14.323Z,8.25
2024-02-19T07:51:14.192Z,8.28
2024-02-19T07:52:14.200Z,8.28
2024-02-19T07:53:17.105Z,8.30
2024-02-19T07:54:14.166Z,8.37
2024-02-19T07:55:14.219Z,8.37
2024-02-19T07:56:14.163Z,8.35
2024-02-19T07:57:14.108Z,8.28
2024-02-19T07:58:14.155Z,8.28
2024-02-19T07:59:14.098Z,8.35
2024-02-19T08:00:14.085Z,8.37
2024-02-19T08:01:14.188Z,8.39
2024-02-19T08:02:14.148Z,8.35
2024-02-19T08:03:14.127Z,8.37
2024-02-19T08:04:14.141Z,8.40
2024-02-19T08:05:14.323Z,8.42
2024-02-19T08:06:14.077Z,8.44
2024-02-19T08:07:14.151Z,8.47
2024-02-19T08:08:14.014Z,8.47
2024-02-19T08:09:13.998Z,8.45
2024-02-19T08:10:14.074Z,8.50
2024-02-19T08:11:14.003Z,8.47
2024-02-19T08:12:14.020Z,8.47
2024-02-19T08:13:14.053Z,8.48
2024-02-19T08:14:13.986Z,8.51
2024-02-19T08:15:13.983Z,8.51
2024-02-19T08:16:13.961Z,8.50
2024-02-19T08:17:13.911Z,8.53
2024-02-19T08:18:14.005Z,8.51
2024-02-19T08:19:14.125Z,8.55
2024-02-19T08:20:13.899Z,8.54
2024-02-19T08:21:14.129Z,8.58
2024-02-19T08:22:13.904Z,8.53
2024-02-19T08:23:13.846Z,8.57
2024-02-19T08:24:13.836Z,8.60
2024-02-19T08:25:13.884Z,8.58
2024-02-19T08:26:13.851Z,8.55
2024-02-19T08:27:13.853Z,8.58
2024-02-19T08:28:13.872Z,8.66
2024-02-19T08:29:13.798Z,8.63
2024-02-19T08:30:13.809Z,8.65
2024-02-19T08:31:13.795Z,8.63
2024-02-19T08:32:13.769Z,8.60
2024-02-19T08:33:13.752Z,8.60
2024-02-19T08:34:16.555Z,8.62
2024-02-19T08:35:13.801Z,8.63
2024-02-19T08:36:13.756Z,8.60
2024-02-19T08:37:13.717Z,8.66
2024-02-19T08:38:13.718Z,8.71
2024-02-19T08:39:13.718Z,8.73
2024-02-19T08:40:13.770Z,8.79
2024-02-19T08:41:13.674Z,8.83
2024-02-19T08:42:13.676Z,8.84
2024-02-19T08:43:13.712Z,8.76
2024-02-19T08:44:13.653Z,8.76
2024-02-19T08:45:13.620Z,8.75
2024-02-19T08:46:13.743Z,8.72
2024-02-19T08:47:13.594Z,8.72
2024-02-19T08:48:13.707Z,8.68
2024-02-19T08:49:13.757Z,8.66
2024-02-19T08:50:13.654Z,8.68
2024-02-19T08:51:13.565Z,8.72
2024-02-19T08:52:13.640Z,8.73
2024-02-19T08:53:13.546Z,8.75
2024-02-19T08:54:13.542Z,8.78
2024-02-19T08:55:13.592Z,8.76
2024-02-19T08:56:13.511Z,8.79
2024-02-19T08:57:13.497Z,8.75
2024-02-19T08:58:13.558Z,8.76
2024-02-19T08:59:13.473Z,8.81
2024-02-19T09:00:13.487Z,8.83
2024-02-19T09:01:13.495Z,8.83
2024-02-19T09:02:13.514Z,8.83
2024-02-19T09:03:13.468Z,8.86
2024-02-19T09:04:13.515Z,8.90
2024-02-19T09:05:13.538Z,8.88
2024-02-19T09:06:13.472Z,8.88
2024-02-19T09:07:13.490Z,8.94
2024-02-19T09:08:13.431Z,8.94
2024-02-19T09:09:13.398Z,8.96
2024-02-19T09:10:13.840Z,8.99
2024-02-19T09:11:13.371Z,8.96
2024-02-19T09:12:13.384Z,9.01
2024-02-19T09:13:13.420Z,9.01
2024-02-19T09:14:13.334Z,9.04
2024-02-19T09:15:13.319Z,9.02
2024-02-19T09:16:13.386Z,9.02
2024-02-19T09:17:13.301Z,9.04
2024-02-19T09:18:13.415Z,9.09
2024-02-19T09:19:13.322Z,9.13
2024-02-19T09:20:13.332Z,9.10
2024-02-19T09:21:13.253Z,9.10
2024-02-19T09:22:13.339Z,9.15
2024-02-19T09:23:13.246Z,9.20
2024-02-19T09:24:13.234Z,9.18
2024-02-19T09:25:14.040Z,9.16
2024-02-19T09:26:13.243Z,9.20
2024-02-19T09:27:13.551Z,9.20
2024-02-19T09:28:13.439Z,9.20
2024-02-19T09:29:13.234Z,9.20
2024-02-19T09:30:13.202Z,9.16
2024-02-19T09:31:13.219Z,9.16
2024-02-19T09:32:13.298Z,9.15
2024-02-19T09:33:13.279Z,9.21
2024-02-19T09:34:21.087Z,9.23
2024-02-19T09:35:22.245Z,9.30
2024-02-19T09:36:13.153Z,9.35
2024-02-19T09:37:13.204Z,9.38
2024-02-19T09:38:13.091Z,9.34
2024-02-19T09:39:13.135Z,9.35
2024-02-19T09:40:13.096Z,9.42
2024-02-19T09:41:13.062Z,9.42
2024-02-19T09:42:13.031Z,9.38
2024-02-19T09:43:13.058Z,9.32
2024-02-19T09:44:13.015Z,9.31
2024-02-19T09:45:13.014Z,9.34
2024-02-19T09:46:13.104Z,9.40
2024-02-19T09:47:12.988Z,9.40
2024-02-19T09:48:13.101Z,9.43
2024-02-19T09:49:13.072Z,9.48
2024-02-19T09:50:13.051Z,9.50
2024-02-19T09:51:18.680Z,9.53
2024-02-19T09:52:13.133Z,9.57
2024-02-19T09:53:12.975Z,9.60
2024-02-19T09:54:12.985Z,9.64
2024-02-19T09:55:12.940Z,9.61
2024-02-19T09:56:12.913Z,9.61
2024-02-19T09:57:12.893Z,9.61
2024-02-19T09:58:12.928Z,9.66
2024-02-19T09:59:12.854Z,9.64
2024-02-19T10:00:12.906Z,9.61
2024-02-19T10:01:12.966Z,9.63
2024-02-19T10:02:12.898Z,9.61
2024-02-19T10:03:12.827Z,9.67
2024-02-19T10:04:12.865Z,9.67
2024-02-19T10:05:13.407Z,9.70
2024-02-19T10:06:12.933Z,9.75
2024-02-19T10:07:12.945Z,9.76
2024-02-19T10:08:12.803Z,9.78
2024-02-19T10:09:12.782Z,9.76
2024-02-19T10:10:12.839Z,9.78
2024-02-19T10:11:12.800Z,9.76
2024-02-19T10:12:12.749Z,9.81
2024-02-19T10:13:12.800Z,9.78
2024-02-19T10:14:12.737Z,9.82
2024-02-19T10:15:12.716Z,9.81
2024-02-19T10:16:13.004Z,9.82
2024-02-19T10:17:12.916Z,9.79
2024-02-19T10:18:12.753Z,9.82
2024-02-19T10:19:12.956Z,9.85
2024-02-19T10:20:12.892Z,9.81
2024-02-19T10:21:12.660Z,9.79
2024-02-19T10:22:12.663Z,9.79
2024-02-19T10:23:12.655Z,9.81
2024-02-19T10:24:12.610Z,9.81
2024-02-19T10:25:12.853Z,9.78
2024-02-19T10:26:12.624Z,9.78
2024-02-19T10:27:12.603Z,9.82
2024-02-19T10:28:12.650Z,9.79
2024-02-19T10:29:12.571Z,9.79
2024-02-19T10:30:12.555Z,9.78
2024-02-19T10:31:12.557Z,9.79
2024-02-19T10:32:12.529Z,9.76
2024-02-19T10:33:12.631Z,9.75
2024-02-19T10:34:12.675Z,9.78
2024-02-19T10:35:12.501Z,9.78
2024-02-19T10:36:12.483Z,9.82
2024-02-19T10:37:12.620Z,9.89
2024-02-19T10:38:13.128Z,9.88
2024-02-19T10:39:12.464Z,9.83
2024-02-19T10:40:12.506Z,9.82
2024-02-19T10:41:12.437Z,9.82
2024-02-19T10:42:12.459Z,9.86
2024-02-19T10:43:12.458Z,9.89
2024-02-19T10:44:12.448Z,9.88
2024-02-19T10:45:12.404Z,9.94
2024-02-19T10:46:12.626Z,9.99
2024-02-19T10:47:23.413Z,9.93
2024-02-19T10:48:12.472Z,9.89
2024-02-19T10:49:12.451Z,9.88
2024-02-19T10:50:12.589Z,9.88
2024-02-19T10:51:12.361Z,9.88
2024-02-19T10:52:12.476Z,9.82
2024-02-19T10:53:12.344Z,9.82
2024-02-19T10:54:12.344Z,9.81
2024-02-19T10:55:14.753Z,9.83
2024-02-19T10:56:12.325Z,9.79
2024-02-19T10:57:12.277Z,9.82
2024-02-19T10:58:12.341Z,9.86
2024-02-19T10:59:12.259Z,9.86
2024-02-19T11:00:12.259Z,9.97
2024-02-19T11:01:12.440Z,10.06
2024-02-19T11:02:12.338Z,10.07
2024-02-19T11:03:12.263Z,10.09
2024-02-19T11:04:12.332Z,10.06
2024-02-19T11:05:12.267Z,10.10
2024-02-19T11:06:12.208Z,10.14
2024-02-19T11:07:12.259Z,10.12
2024-02-19T11:08:12.176Z,10.15
2024-02-19T11:09:12.165Z,10.12
2024-02-19T11:10:12.216Z,10.12
2024-02-19T11:11:12.149Z,10.09
2024-02-19T11:12:12.154Z,10.14
2024-02-19T11:13:12.161Z,10.09
2024-02-19T11:14:12.112Z,10.07
2024-02-19T11:15:12.094Z,10.06
2024-02-19T11:16:12.079Z,10.03
2024-02-19T11:17:12.073Z,10.06
2024-02-19T11:18:12.168Z,10.07
2024-02-19T11:19:12.237Z,10.14
2024-02-19T11:20:12.040Z,10.17
2024-02-19T11:21:12.086Z,10.21
2024-02-19T11:22:12.101Z,10.18
2024-02-19T11:23:12.010Z,10.19
2024-02-19T11:24:11.983Z,10.19
2024-02-19T11:25:11.987Z,10.21
2024-02-19T11:26:13.701Z,10.19
2024-02-19T11:27:11.965Z,10.21
2024-02-19T11:28:12.062Z,10.25
2024-02-19T11:29:11.945Z,10.24
2024-02-19T11:30:11.929Z,10.26
2024-02-19T11:31:12.283Z,10.26
2024-02-19T11:32:11.956Z,10.25
2024-02-19T11:33:11.991Z,10.26
2024-02-19T11:34:12.065Z,10.30
2024-02-19T11:35:11.888Z,10.36
2024-02-19T11:36:12.052Z,10.33
2024-02-19T11:37:11.969Z,10.33
2024-02-19T11:38:11.881Z,10.30
2024-02-19T11:39:11.853Z,10.32
2024-02-19T11:40:11.835Z,10.36
2024-02-19T11:41:11.930Z,10.37
2024-02-19T11:42:11.832Z,10.37
2024-02-19T11:43:12.321Z,10.43
2024-02-19T11:44:11.785Z,10.44
2024-02-19T11:45:11.801Z,10.43
2024-02-19T11:46:11.822Z,10.47
2024-02-19T11:47:11.750Z,10.52
2024-02-19T11:48:11.864Z,10.53
2024-02-19T11:49:11.796Z,10.55
2024-02-19T11:50:11.787Z,10.51
2024-02-19T11:51:11.718Z,10.52
2024-02-19T11:52:12.755Z,10.52
2024-02-19T11:53:11.717Z,10.47
2024-02-19T11:54:11.695Z,10.52
2024-02-19T11:55:11.759Z,10.55
2024-02-19T11:56:11.737Z,10.56
2024-02-19T11:57:11.644Z,10.53
2024-02-19T11:58:11.807Z,10.47
2024-02-19T11:59:11.642Z,10.40
2024-02-19T12:00:11.659Z,10.40
2024-02-19T12:01:11.713Z,10.39
2024-02-19T12:02:11.705Z,10.34
2024-02-19T12:03:11.587Z,10.28
2024-02-19T12:04:11.611Z,10.30
2024-02-19T12:05:11.670Z,10.30
2024-02-19T12:06:11.553Z,10.25
2024-02-19T12:07:12.214Z,10.24
2024-02-19T12:08:11.674Z,10.24
2024-02-19T12:09:11.564Z,10.25
2024-02-19T12:10:11.588Z,10.24
2024-02-19T12:11:11.575Z,10.30
2024-02-19T12:12:11.557Z,10.34
2024-02-19T12:13:11.512Z,10.37
2024-02-19T12:14:11.465Z,10.44
2024-02-19T12:15:11.481Z,10.46
2024-02-19T12:16:11.520Z,10.44
2024-02-19T12:17:11.431Z,10.44
2024-02-19T12:18:11.511Z,10.39
2024-02-19T12:19:11.527Z,10.44
2024-02-19T12:20:11.674Z,10.43
2024-02-19T12:21:11.426Z,10.43
2024-02-19T12:22:11.449Z,10.39
2024-02-19T12:23:11.394Z,10.42
2024-02-19T12:24:11.366Z,10.42
2024-02-19T12:25:11.403Z,10.44
2024-02-19T12:26:11.355Z,10.51
2024-02-19T12:27:11.348Z,10.44
2024-02-19T12:28:11.362Z,10.42
2024-02-19T12:29:11.326Z,10.37
2024-02-19T12:30:11.367Z,10.34
2024-02-19T12:31:11.325Z,10.33
2024-02-19T12:32:11.294Z,10.30
2024-02-19T12:33:11.451Z,10.25
2024-02-19T12:34:11.364Z,10.25
2024-02-19T12:35:11.431Z,10.24
2024-02-19T12:36:11.318Z,10.30
2024-02-19T12:37:11.307Z,10.33
2024-02-19T12:38:11.224Z,10.39
2024-02-19T12:39:11.880Z,10.44
2024-02-19T12:40:11.260Z,10.51
2024-02-19T12:41:11.213Z,10.52
2024-02-19T12:42:11.573Z,10.56
2024-02-19T12:43:11.241Z,10.55
2024-02-19T12:44:11.189Z,10.66
2024-02-19T12:45:11.265Z,10.74
2024-02-19T12:46:11.217Z,10.71
2024-02-19T12:47:11.418Z,10.73
2024-02-19T12:48:11.239Z,10.66
2024-02-19T12:49:11.231Z,10.65
2024-02-19T12:50:11.466Z,10.55
2024-02-19T12:51:11.318Z,10.55
2024-02-19T12:52:11.174Z,10.44
2024-02-19T12:53:11.108Z,10.47
2024-02-19T12:54:11.086Z,10.46
2024-02-19T12:55:11.215Z,10.42
2024-02-19T12:56:11.045Z,10.44
2024-02-19T12:57:11.194Z,10.42
2024-02-19T12:58:11.051Z,10.44
2024-02-19T12:59:11.043Z,10.40
2024-02-19T13:00:11.146Z,10.40
2024-02-19T13:01:19.930Z,10.34
2024-02-19T13:02:11.119Z,10.36
2024-02-19T13:03:10.973Z,10.30
2024-02-19T13:04:10.984Z,10.28
2024-02-19T13:05:10.990Z,10.28
2024-02-19T13:06:11.002Z,10.26
2024-02-19T13:07:11.226Z,10.24
2024-02-19T13:08:10.976Z,10.26
2024-02-19T13:09:11.003Z,10.25
2024-02-19T13:10:10.961Z,10.19
2024-02-19T13:11:26.843Z,10.21
2024-02-19T13:14:44.762Z,10.17
2024-02-19T13:15:47.940Z,10.19
2024-02-19T13:16:49.547Z,10.21